createdAt,value
2018-08-31T00:02:06.557Z,100050.81
2018-08-31T00:04:46.538Z,100051.45
2018-08-31T00:07:32.272Z,100047.73
2018-08-31T00:12:46.291Z,100049.24
2018-08-31T00:15:15.297Z,100052.10
2018-08-31T00:17:44.951Z,100054.56
2018-08-31T00:20:15.024Z,100060.07
2018-08-31T00:22:44.514Z,100053.03
2018-08-31T00:25:24.332Z,100056.77
2018-08-31T00:28:04.419Z,100060.38
2018-08-31T00:30:44.213Z,100048.48
2018-08-31T00:33:24.223Z,100053.05
2018-08-31T00:36:04.622Z,100047.52
2018-08-31T00:39:45.222Z,100054.82
2018-08-31T00:42:25.305Z,100052.08
2018-08-31T00:45:05.143Z,100052.25
2018-08-31T00:47:33.937Z,100054.63
2018-08-31T00:50:02.669Z,100045.19
2018-08-31T00:52:31.407Z,100049.48
2018-08-31T00:55:00.219Z,100046.61
2018-08-31T00:57:28.959Z,100047.34
2018-08-31T00:59:57.623Z,100050.66
2018-08-31T01:02:26.808Z,100051.80
2018-08-31T01:04:55.585Z,100044.86
2018-08-31T01:07:24.377Z,100043.23
2018-08-31T01:09:53.283Z,100054.34
2018-08-31T01:12:22.392Z,100052.45
2018-08-31T01:14:51.143Z,100052.36
2018-08-31T01:17:20.982Z,100053.48
2018-08-31T01:19:50.605Z,100050.83
2018-08-31T01:22:19.451Z,100045.16
2018-08-31T01:24:48.396Z,100056.92
2018-08-31T01:27:17.368Z,100053.66
2018-08-31T01:29:45.982Z,100055.25
2018-08-31T01:32:15.183Z,100053.27
2018-08-31T01:34:44.581Z,100054.47
2018-08-31T01:37:13.188Z,100053.31
2018-08-31T01:39:41.866Z,100051.30
2018-08-31T01:42:10.829Z,100059.83
2018-08-31T01:44:39.652Z,100055.15
2018-08-31T01:47:08.353Z,100057.03
2018-08-31T01:49:37.014Z,100062.44
2018-08-31T01:52:05.701Z,100061.83
2018-08-31T01:54:34.374Z,100073.88
2018-08-31T01:57:03.050Z,100059.34
2018-08-31T01:59:31.770Z,100068.95
2018-08-31T02:02:00.494Z,100071.86
2018-08-31T02:04:29.271Z,100071.47
2018-08-31T02:06:58.262Z,100065.50
2018-08-31T02:09:26.949Z,100067.47
2018-08-31T02:11:56.647Z,100069.90
2018-08-31T02:14:25.265Z,100062.56
2018-08-31T02:16:53.930Z,100066.44
2018-08-31T02:19:22.625Z,100068.88
2018-08-31T02:21:51.374Z,100068.27
2018-08-31T02:24:20.074Z,100068.81
2018-08-31T02:26:48.817Z,100063.86
2018-08-31T02:29:17.726Z,100064.55
2018-08-31T02:31:46.378Z,100068.42
2018-08-31T02:34:15.099Z,100067.56
2018-08-31T02:36:44.403Z,100073.70
2018-08-31T02:39:13.212Z,100072.94
2018-08-31T02:41:41.826Z,100069.82
2018-08-31T02:44:10.738Z,100070.56
2018-08-31T02:46:40.170Z,100075.80
2018-08-31T02:49:08.965Z,100075.58
2018-08-31T02:51:37.982Z,100084.13
2018-08-31T02:54:06.678Z,100082.02
2018-08-31T02:56:36.258Z,100083.50
2018-08-31T02:59:05.076Z,100087.72
2018-08-31T03:01:33.771Z,100084.87
2018-08-31T03:04:02.451Z,100081.12
2018-08-31T03:06:31.388Z,100086.50
2018-08-31T03:09:01.081Z,100083.02
2018-08-31T03:11:30.725Z,100079.58
2018-08-31T03:13:59.566Z,100090.34
2018-08-31T03:16:29.443Z,100080.77
2018-08-31T03:18:59.281Z,100087.64
2018-08-31T03:21:28.043Z,100087.48
2018-08-31T03:23:56.690Z,100084.44
2018-08-31T03:26:26.083Z,100087.09
2018-08-31T03:28:54.986Z,100088.80
2018-08-31T03:31:24.210Z,100081.77
2018-08-31T03:33:52.959Z,100086.53
2018-08-31T03:36:22.589Z,100081.22
2018-08-31T03:38:51.455Z,100082.55
2018-08-31T03:41:20.374Z,100090.91
2018-08-31T03:43:50.042Z,100086.84
2018-08-31T03:46:18.825Z,100087.89
2018-08-31T03:48:47.570Z,100093.98
2018-08-31T03:51:16.245Z,100091.55
2018-08-31T03:53:45.054Z,100092.49
2018-08-31T03:56:13.745Z,100091.63
2018-08-31T03:58:42.945Z,100094.54
2018-08-31T04:01:11.617Z,100098.25
2018-08-31T04:03:40.430Z,100100.21
2018-08-31T04:06:09.038Z,100100.30
2018-08-31T04:08:37.800Z,100104.91
2018-08-31T04:11:06.954Z,100096.94
2018-08-31T04:13:35.673Z,100107.57
2018-08-31T04:16:04.346Z,100111.16
2018-08-31T04:18:33.073Z,100114.77
2018-08-31T04:21:01.741Z,100119.50
2018-08-31T04:23:30.442Z,100120.20
2018-08-31T04:25:59.284Z,100131.38
2018-08-31T04:28:28.869Z,100134.03
2018-08-31T04:30:57.749Z,100135.36
2018-08-31T04:33:26.550Z,100136.69
2018-08-31T04:35:59.218Z,100137.86
2018-08-31T04:38:27.946Z,100141.11
2018-08-31T04:40:57.049Z,100136.96
2018-08-31T04:43:25.793Z,100141.34
2018-08-31T04:45:54.407Z,100132.81
2018-08-31T04:48:23.089Z,100134.77
2018-08-31T04:50:51.775Z,100139.91
2018-08-31T04:53:20.789Z,100137.26
2018-08-31T04:55:49.453Z,100138.78
2018-08-31T04:58:18.117Z,100135.41
2018-08-31T05:00:46.924Z,100132.98
2018-08-31T05:03:15.703Z,100133.86
2018-08-31T05:05:44.753Z,100129.94
2018-08-31T05:08:13.357Z,100130.38
2018-08-31T05:10:42.106Z,100124.64
2018-08-31T05:13:10.710Z,100125.44
2018-08-31T05:15:39.324Z,100126.81
2018-08-31T05:18:08.987Z,100124.20
2018-08-31T05:20:37.595Z,100125.33
2018-08-31T05:23:06.391Z,100130.48
2018-08-31T05:25:35.077Z,100125.55
2018-08-31T05:28:03.805Z,100129.19
2018-08-31T05:30:32.972Z,100125.97
2018-08-31T05:33:01.792Z,100124.94
2018-08-31T05:35:30.426Z,100129.20
2018-08-31T05:37:59.107Z,100127.61
2018-08-31T05:40:27.826Z,100132.58
2018-08-31T05:42:56.547Z,100131.34
2018-08-31T05:45:26.329Z,100138.03
2018-08-31T05:47:55.055Z,100134.08
2018-08-31T05:50:23.725Z,100135.70
2018-08-31T05:52:52.382Z,100130.96
2018-08-31T05:55:21.099Z,100136.19
2018-08-31T05:57:49.798Z,100141.40
2018-08-31T06:00:18.499Z,100145.38
2018-08-31T06:02:47.138Z,100142.55
2018-08-31T06:05:15.834Z,100145.68
2018-08-31T06:07:45.605Z,100144.45
2018-08-31T06:10:14.265Z,100152.27
2018-08-31T06:12:42.984Z,100139.78
2018-08-31T06:15:11.584Z,100141.02
2018-08-31T06:17:40.408Z,100141.89
2018-08-31T06:20:09.441Z,100145.70
2018-08-31T06:22:38.155Z,100148.14
2018-08-31T06:25:07.304Z,100147.38
2018-08-31T06:27:35.987Z,100163.28
2018-08-31T06:30:05.396Z,100154.63
2018-08-31T06:32:34.090Z,100151.39
2018-08-31T06:35:02.810Z,100162.31
2018-08-31T06:37:31.473Z,100156.13
2018-08-31T06:40:00.185Z,100156.31
2018-08-31T06:42:28.868Z,100162.89
2018-08-31T06:44:57.553Z,100160.98
2018-08-31T06:47:26.275Z,100164.00
2018-08-31T06:49:55.090Z,100167.44
2018-08-31T06:52:23.990Z,100170.10
2018-08-31T06:54:52.685Z,100171.43
2018-08-31T06:57:21.506Z,100176.48
2018-08-31T06:59:51.411Z,100177.34
2018-08-31T07:02:20.141Z,100174.67
2018-08-31T07:04:49.870Z,100181.30
2018-08-31T07:07:19.578Z,100178.82
2018-08-31T07:09:49.273Z,100182.25
2018-08-31T07:12:18.857Z,100186.20
2018-08-31T07:14:47.609Z,100199.72
2018-08-31T07:17:16.507Z,100184.28
2018-08-31T07:19:45.788Z,100188.28
2018-08-31T07:22:14.508Z,100184.22
2018-08-31T07:24:43.197Z,100183.94
2018-08-31T07:27:12.787Z,100185.17
2018-08-31T07:29:41.481Z,100189.74
2018-08-31T07:32:10.359Z,100185.92
2018-08-31T07:34:39.273Z,100188.97
2018-08-31T07:37:08.934Z,100183.75
2018-08-31T07:39:37.594Z,100186.91
2018-08-31T07:42:06.409Z,100190.98
2018-08-31T07:44:35.049Z,100190.60
2018-08-31T07:47:04.063Z,100184.30
2018-08-31T07:49:32.741Z,100191.73
2018-08-31T07:52:01.482Z,100190.52
2018-08-31T07:54:30.128Z,100197.38
2018-08-31T07:56:58.813Z,100193.69
2018-08-31T07:59:27.537Z,100188.77
2018-08-31T08:01:57.962Z,100202.33
2018-08-31T08:04:26.836Z,100195.03
2018-08-31T08:06:55.512Z,100205.12
2018-08-31T08:09:24.136Z,100206.16
2018-08-31T08:11:53.198Z,100200.36
2018-08-31T08:14:22.006Z,100198.06
2018-08-31T08:16:51.480Z,100199.56
2018-08-31T08:19:20.253Z,100203.03
2018-08-31T08:21:49.841Z,100201.05
2018-08-31T08:24:18.693Z,100220.08
2018-08-31T08:26:47.401Z,100202.87
2018-08-31T08:29:16.093Z,100207.64
2018-08-31T08:31:45.321Z,100208.97
2018-08-31T08:34:14.304Z,100196.70
2018-08-31T08:36:44.445Z,100198.47
2018-08-31T08:39:14.201Z,100191.05
2018-08-31T08:41:43.542Z,100199.09
2018-08-31T08:44:12.906Z,100197.57
2018-08-31T08:46:41.816Z,100191.62
2018-08-31T08:49:10.613Z,100198.41
2018-08-31T08:51:39.303Z,100208.38
2018-08-31T08:54:07.939Z,100207.83
2018-08-31T08:56:37.570Z,100207.85
2018-08-31T08:59:06.804Z,100204.58
2018-08-31T09:01:35.387Z,100204.78
2018-08-31T09:04:04.179Z,100202.49
2018-08-31T09:06:32.843Z,100205.00
2018-08-31T09:09:01.594Z,100205.46
2018-08-31T09:11:30.301Z,100206.09
2018-08-31T09:13:59.050Z,100209.16
2018-08-31T09:16:27.878Z,100215.22
2018-08-31T09:18:58.603Z,100214.44
2018-08-31T09:21:28.319Z,100213.54
2018-08-31T09:23:57.648Z,100218.16
2018-08-31T09:26:27.240Z,100213.80
2018-08-31T09:28:56.330Z,100211.32
2018-08-31T09:31:25.941Z,100206.95
2018-08-31T09:33:55.335Z,100214.89
2018-08-31T09:36:24.782Z,100214.92
2018-08-31T09:38:53.537Z,100209.83
2018-08-31T09:41:22.254Z,100211.66
2018-08-31T09:43:51.296Z,100205.33
2018-08-31T09:46:20.125Z,100209.14
2018-08-31T09:48:48.936Z,100218.75
2018-08-31T09:51:17.593Z,100210.56
2018-08-31T09:53:46.392Z,100212.14
2018-08-31T09:56:15.185Z,100209.83
2018-08-31T09:58:43.783Z,100209.87
2018-08-31T10:01:17.486Z,100210.95
2018-08-31T10:03:46.154Z,100216.54
2018-08-31T10:06:15.041Z,100222.36
2018-08-31T10:08:43.825Z,100218.48
2018-08-31T10:11:12.660Z,100216.77
2018-08-31T10:13:41.481Z,100209.81
2018-08-31T10:16:10.207Z,100214.59
2018-08-31T10:18:39.871Z,100219.72
2018-08-31T10:23:42.801Z,100207.78
2018-08-31T10:26:11.541Z,100209.39
2018-08-31T10:28:40.485Z,100211.56
2018-08-31T10:31:10.193Z,100209.01
2018-08-31T10:33:38.934Z,100204.22
2018-08-31T10:36:07.764Z,100204.47
2018-08-31T10:38:36.437Z,100196.37
2018-08-31T10:41:06.373Z,100196.98
2018-08-31T10:43:35.689Z,100191.37
2018-08-31T10:46:04.442Z,100192.78
2018-08-31T10:48:33.034Z,100188.10
2018-08-31T10:51:01.704Z,100194.15
2018-08-31T10:53:31.010Z,100189.13
2018-08-31T10:55:59.720Z,100190.98
2018-08-31T10:58:28.421Z,100182.73
2018-08-31T11:00:57.096Z,100194.66
2018-08-31T11:03:25.963Z,100195.10
2018-08-31T11:05:54.846Z,100188.51
2018-08-31T11:08:24.270Z,100191.97
2018-08-31T11:10:52.992Z,100187.95
2018-08-31T11:13:23.236Z,100190.17
2018-08-31T11:15:52.489Z,100187.98
2018-08-31T11:18:21.106Z,100184.13
2018-08-31T11:20:49.800Z,100202.05
2018-08-31T11:23:18.405Z,100199.68
2018-08-31T11:25:47.275Z,100187.22
2018-08-31T11:28:15.901Z,100186.64
2018-08-31T11:30:44.662Z,100187.53
2018-08-31T11:33:13.264Z,100189.19
2018-08-31T11:35:41.911Z,100192.06
2018-08-31T11:38:10.520Z,100186.18
2018-08-31T11:40:39.186Z,100186.09
2018-08-31T11:43:07.805Z,100183.30
2018-08-31T11:45:37.111Z,100190.28
2018-08-31T11:48:06.420Z,100182.69
2018-08-31T11:50:35.086Z,100183.89
2018-08-31T11:53:03.894Z,100180.84
2018-08-31T11:55:32.789Z,100186.09
2018-08-31T11:58:01.589Z,100187.23
2018-08-31T12:00:31.033Z,100191.91
2018-08-31T12:02:59.654Z,100182.86
2018-08-31T12:05:28.342Z,100175.52
2018-08-31T12:07:57.137Z,100172.66
2018-08-31T12:10:25.846Z,100171.94
2018-08-31T12:12:54.537Z,100176.00
2018-08-31T12:15:23.241Z,100171.98
2018-08-31T12:17:51.885Z,100165.34
2018-08-31T12:20:20.465Z,100172.98
2018-08-31T12:22:49.417Z,100169.67
2018-08-31T12:25:18.076Z,100170.85
2018-08-31T12:27:46.918Z,100165.06
2018-08-31T12:30:16.192Z,100159.69
2018-08-31T12:32:45.463Z,100163.00
2018-08-31T12:35:14.289Z,100167.55
2018-08-31T12:37:42.980Z,100175.84
2018-08-31T12:40:11.672Z,100164.48
2018-08-31T12:42:40.506Z,100156.16
2018-08-31T12:45:09.249Z,100158.59
2018-08-31T12:47:38.459Z,100164.95
2018-08-31T12:50:07.091Z,100158.80
2018-08-31T12:52:36.900Z,100154.69
2018-08-31T12:55:05.690Z,100147.12
2018-08-31T12:57:34.483Z,100151.27
2018-08-31T13:00:04.264Z,100153.82
2018-08-31T13:02:33.066Z,100155.21
2018-08-31T13:05:02.382Z,100146.33
2018-08-31T13:07:30.965Z,100147.16
2018-08-31T13:09:59.602Z,100148.34
2018-08-31T13:12:28.389Z,100149.61
2018-08-31T13:14:57.109Z,100142.80
2018-08-31T13:19:59.825Z,100143.22
2018-08-31T13:22:28.449Z,100153.69
2018-08-31T13:24:57.169Z,100154.48
2018-08-31T13:27:25.821Z,100157.09
2018-08-31T13:29:54.635Z,100153.27
2018-08-31T13:32:23.366Z,100153.97
2018-08-31T13:34:52.125Z,100153.44
2018-08-31T13:37:20.979Z,100153.33
2018-08-31T13:39:49.611Z,100152.17
2018-08-31T13:42:18.398Z,100152.82
2018-08-31T13:44:47.741Z,100154.75
2018-08-31T13:47:16.381Z,100156.64
2018-08-31T13:49:45.077Z,100157.22
2018-08-31T13:52:14.906Z,100145.25
2018-08-31T13:54:45.507Z,100153.30
2018-08-31T13:57:14.537Z,100155.22
2018-08-31T13:59:43.507Z,100148.81
2018-08-31T14:02:13.914Z,100168.23
2018-08-31T14:04:43.906Z,100160.91
2018-08-31T14:07:13.511Z,100157.71
2018-08-31T14:09:44.512Z,100158.16
2018-08-31T14:12:13.483Z,100162.35
2018-08-31T14:14:43.090Z,100158.67
2018-08-31T14:17:11.773Z,100152.63
2018-08-31T14:19:40.529Z,100154.12
2018-08-31T14:22:09.258Z,100154.12
2018-08-31T14:24:37.953Z,100155.91
2018-08-31T14:27:06.586Z,100148.88
2018-08-31T14:29:35.319Z,100148.02
2018-08-31T14:32:03.977Z,100155.05
2018-08-31T14:34:32.724Z,100145.50
2018-08-31T14:37:01.413Z,100152.55
2018-08-31T14:39:30.080Z,100143.66
2018-08-31T14:41:58.830Z,100145.50
2018-08-31T14:44:27.511Z,100145.17
2018-08-31T14:46:56.243Z,100141.38
2018-08-31T14:49:25.172Z,100147.68
2018-08-31T14:51:54.813Z,100147.52
2018-08-31T14:54:23.781Z,100150.43
2018-08-31T14:56:52.450Z,100143.69
2018-08-31T14:59:21.157Z,100145.87
2018-08-31T15:01:50.813Z,100150.39
2018-08-31T15:04:19.737Z,100156.95
2018-08-31T15:06:49.400Z,100150.18
2018-08-31T15:09:18.078Z,100152.14
2018-08-31T15:11:46.854Z,100153.47
2018-08-31T15:14:16.826Z,100156.49
2018-08-31T15:16:45.573Z,100166.09
2018-08-31T15:19:14.290Z,100160.50
2018-08-31T15:21:43.789Z,100157.53
2018-08-31T15:24:12.499Z,100158.39
2018-08-31T15:26:41.345Z,100154.27
2018-08-31T15:29:10.414Z,100156.06
2018-08-31T15:31:39.171Z,100155.73
2018-08-31T15:34:07.977Z,100161.34
2018-08-31T15:36:36.785Z,100161.55
2018-08-31T15:39:07.809Z,100158.48
2018-08-31T15:41:36.700Z,100147.55
2018-08-31T15:44:05.538Z,100143.13
2018-08-31T15:46:34.367Z,100139.38
2018-08-31T15:49:03.004Z,100139.45
2018-08-31T15:51:32.168Z,100144.17
2018-08-31T15:54:00.922Z,100140.75
2018-08-31T15:56:29.566Z,100138.75
2018-08-31T15:58:58.395Z,100145.13
2018-08-31T16:01:27.017Z,100149.14
2018-08-31T16:03:55.694Z,100150.13
2018-08-31T16:06:24.341Z,100156.72
2018-08-31T16:08:53.009Z,100160.59
2018-08-31T16:11:21.710Z,100156.78
2018-08-31T16:13:50.738Z,100160.30
2018-08-31T16:16:19.537Z,100164.69
2018-08-31T16:18:48.359Z,100158.78
2018-08-31T16:21:16.959Z,100164.12
2018-08-31T16:23:45.950Z,100174.83
2018-08-31T16:26:14.716Z,100170.10
2018-08-31T16:28:44.243Z,100175.01
2018-08-31T16:31:13.011Z,100170.29
2018-08-31T16:33:42.175Z,100183.24
2018-08-31T16:36:10.954Z,100181.38
2018-08-31T16:38:40.065Z,100180.30
2018-08-31T16:41:09.025Z,100183.56
2018-08-31T16:43:37.617Z,100185.38
2018-08-31T16:46:07.007Z,100185.25
2018-08-31T16:48:35.670Z,100187.14
2018-08-31T16:51:04.410Z,100192.80
2018-08-31T16:53:33.042Z,100194.59
2018-08-31T16:56:01.821Z,100197.86
2018-08-31T16:58:30.490Z,100197.90
2018-08-31T17:00:59.169Z,100209.09
2018-08-31T17:03:27.962Z,100203.13
2018-08-31T17:05:56.612Z,100207.84
2018-08-31T17:08:25.379Z,100207.91
2018-08-31T17:10:54.352Z,100206.20
2018-08-31T17:13:24.044Z,100206.84
2018-08-31T17:15:59.332Z,100214.57
2018-08-31T17:18:28.189Z,100222.17
2018-08-31T17:20:56.866Z,100218.02
2018-08-31T17:23:25.565Z,100220.59
2018-08-31T17:25:54.366Z,100213.53
2018-08-31T17:28:28.315Z,100218.52
2018-08-31T17:31:02.378Z,100220.80
2018-08-31T17:33:37.590Z,100221.28
2018-08-31T17:36:11.962Z,100215.42
2018-08-31T17:38:40.857Z,100225.51
2018-08-31T17:41:09.518Z,100226.00
2018-08-31T17:43:38.187Z,100223.52
2018-08-31T17:46:06.848Z,100227.63
2018-08-31T17:48:35.568Z,100238.13
2018-08-31T17:51:04.423Z,100234.08
2018-08-31T17:53:33.150Z,100242.55
2018-08-31T17:56:01.832Z,100243.88
2018-08-31T17:58:30.638Z,100252.63
2018-08-31T18:00:59.302Z,100248.95
2018-08-31T18:03:28.187Z,100247.83
2018-08-31T18:05:56.940Z,100246.12
2018-08-31T18:08:25.929Z,100251.11
2018-08-31T18:10:54.618Z,100248.31
2018-08-31T18:13:23.373Z,100265.73
2018-08-31T18:15:55.215Z,100265.47
2018-08-31T18:18:24.030Z,100272.39
2018-08-31T18:20:52.923Z,100275.28
2018-08-31T18:23:21.673Z,100272.83
2018-08-31T18:25:50.699Z,100274.65
2018-08-31T18:28:20.353Z,100277.81
2018-08-31T18:30:49.403Z,100278.67
2018-08-31T18:33:19.625Z,100280.02
2018-08-31T18:35:48.870Z,100280.27
2018-08-31T18:38:18.122Z,100276.09
2018-08-31T18:40:47.903Z,100275.19
2018-08-31T18:43:16.893Z,100270.67
2018-08-31T18:45:45.707Z,100271.10
2018-08-31T18:48:14.725Z,100265.91
2018-08-31T18:50:43.681Z,100265.52
2018-08-31T18:53:12.345Z,100263.80
2018-08-31T18:55:41.834Z,100266.32
2018-08-31T18:58:10.512Z,100267.87
2018-08-31T19:00:39.253Z,100274.52
2018-08-31T19:03:08.149Z,100274.08
2018-08-31T19:05:36.963Z,100282.91
2018-08-31T19:08:05.682Z,100280.44
2018-08-31T19:10:34.329Z,100285.31
2018-08-31T19:13:03.143Z,100287.51
2018-08-31T19:15:32.066Z,100283.02
2018-08-31T19:18:02.138Z,100283.49
2018-08-31T19:20:31.084Z,100280.81
2018-08-31T19:23:00.053Z,100285.08
2018-08-31T19:25:29.254Z,100292.35
2018-08-31T19:27:57.969Z,100287.80
2018-08-31T19:30:26.845Z,100295.55
2018-08-31T19:32:56.168Z,100291.84
2018-08-31T19:35:24.948Z,100285.98
2018-08-31T19:37:53.609Z,100281.97
2018-08-31T19:40:22.466Z,100281.01
2018-08-31T19:42:52.158Z,100284.44
2018-08-31T19:45:20.869Z,100286.15
2018-08-31T19:47:50.526Z,100278.47
2018-08-31T19:50:19.207Z,100280.66
2018-08-31T19:52:47.988Z,100281.52
2018-08-31T19:55:16.940Z,100280.05
2018-08-31T19:57:45.640Z,100279.40
2018-08-31T20:00:14.494Z,100278.27
2018-08-31T20:02:43.270Z,100279.81
2018-08-31T20:05:13.034Z,100280.02
2018-08-31T20:07:41.733Z,100276.48
2018-08-31T20:10:11.899Z,100284.13
2018-08-31T20:12:41.190Z,100288.90
2018-08-31T20:15:10.131Z,100286.47
2018-08-31T20:17:38.902Z,100292.02
2018-08-31T20:20:07.591Z,100300.25
2018-08-31T20:22:36.814Z,100295.11
2018-08-31T20:25:05.633Z,100301.96
2018-08-31T20:27:34.426Z,100300.91
2018-08-31T20:30:04.421Z,100303.09
2018-08-31T20:32:33.141Z,100312.98
2018-08-31T20:35:01.914Z,100317.33
2018-08-31T20:37:32.273Z,100318.22
2018-08-31T20:40:01.151Z,100317.90
2018-08-31T20:42:29.862Z,100324.61
2018-08-31T20:44:58.707Z,100318.70
2018-08-31T20:47:27.417Z,100326.92
2018-08-31T20:49:56.232Z,100330.03
2018-08-31T20:52:25.029Z,100330.61
2018-08-31T20:54:53.792Z,100342.81
2018-08-31T20:57:22.905Z,100343.78
2018-08-31T20:59:51.762Z,100346.07
2018-08-31T21:02:20.729Z,100353.13
2018-08-31T21:04:49.673Z,100349.88
2018-08-31T21:07:18.389Z,100352.75
2018-08-31T21:09:48.217Z,100354.19
2018-08-31T21:12:17.486Z,100350.95
2018-08-31T21:14:46.151Z,100339.41
2018-08-31T21:17:14.966Z,100336.52
2018-08-31T21:19:44.149Z,100343.05
2018-08-31T21:22:13.381Z,100352.80
2018-08-31T21:24:42.165Z,100363.10
2018-08-31T21:27:10.753Z,100371.41
2018-08-31T21:29:39.556Z,100368.34
2018-08-31T21:32:08.264Z,100361.00
2018-08-31T21:34:37.133Z,100364.48
2018-08-31T21:37:06.746Z,100369.63
2018-08-31T21:39:35.369Z,100369.83
2018-08-31T21:42:04.354Z,100359.80
2018-08-31T21:44:33.137Z,100353.70
2018-08-31T21:47:01.825Z,100351.73
2018-08-31T21:49:43.908Z,100342.38
2018-08-31T21:52:12.813Z,100348.77
2018-08-31T21:57:15.726Z,100355.55
2018-08-31T21:59:44.625Z,100352.49
2018-08-31T22:02:13.473Z,100357.36
2018-08-31T22:04:42.294Z,100366.70
2018-08-31T22:07:11.105Z,100362.13
2018-08-31T22:09:39.997Z,100366.05
2018-08-31T22:12:08.901Z,100358.98
2018-08-31T22:14:37.557Z,100350.20
2018-08-31T22:17:06.457Z,100360.98
2018-08-31T22:19:35.363Z,100357.45
2018-08-31T22:22:04.166Z,100369.09
2018-08-31T22:24:33.051Z,100365.47
2018-08-31T22:27:01.679Z,100373.39
2018-08-31T22:29:30.723Z,100368.42
2018-08-31T22:32:00.551Z,100369.77
2018-08-31T22:34:29.508Z,100359.27
2018-08-31T22:36:59.986Z,100365.19
2018-08-31T22:39:28.887Z,100364.80
2018-08-31T22:41:58.166Z,100359.55
2018-08-31T22:44:26.952Z,100357.36
2018-08-31T22:46:55.874Z,100347.34
2018-08-31T22:49:24.777Z,100341.27
2018-08-31T22:51:53.647Z,100343.56
2018-08-31T22:54:23.141Z,100345.47
2018-08-31T22:56:51.767Z,100349.56
2018-08-31T22:59:21.057Z,100351.00
2018-08-31T23:01:49.708Z,100348.04
2018-08-31T23:04:20.219Z,100352.52
2018-08-31T23:06:49.900Z,100351.38
2018-08-31T23:09:18.672Z,100352.53
2018-08-31T23:11:48.362Z,100353.95
2018-08-31T23:14:17.393Z,100356.24
2018-08-31T23:16:45.991Z,100351.28
2018-08-31T23:19:14.787Z,100345.84
2018-08-31T23:21:43.445Z,100339.74
2018-08-31T23:24:12.443Z,100348.05
2018-08-31T23:26:42.527Z,100344.89
2018-08-31T23:29:11.253Z,100348.91
2018-08-31T23:31:40.133Z,100351.73
2018-08-31T23:34:08.756Z,100350.02
2018-08-31T23:36:37.613Z,100348.67
2018-08-31T23:39:08.519Z,100355.17
2018-08-31T23:41:37.982Z,100351.73
2018-08-31T23:44:06.871Z,100348.20
2018-08-31T23:46:36.016Z,100355.73
2018-08-31T23:49:04.973Z,100356.22
2018-08-31T23:51:34.598Z,100358.98
2018-08-31T23:54:04.371Z,100355.83
2018-08-31T23:56:34.407Z,100360.31
2018-08-31T23:59:03.865Z,100361.11
